createdAt,value
2022-10-26T00:00:26.170Z,12.80
2022-10-26T00:02:52.912Z,12.80
2022-10-26T00:05:19.498Z,12.80
2022-10-26T00:07:45.944Z,12.80
2022-10-26T00:10:12.402Z,12.80
2022-10-26T00:12:38.845Z,12.70
2022-10-26T00:15:05.281Z,12.70
2022-10-26T00:17:31.716Z,12.70
2022-10-26T00:19:58.157Z,12.70
2022-10-26T00:22:24.575Z,12.70
2022-10-26T00:24:51.003Z,12.70
2022-10-26T00:27:17.440Z,12.70
2022-10-26T00:29:43.882Z,12.60
2022-10-26T00:32:10.320Z,12.60
2022-10-26T00:34:36.766Z,12.60
2022-10-26T00:37:03.202Z,12.60
2022-10-26T00:39:29.653Z,12.60
2022-10-26T00:41:56.080Z,12.60
2022-10-26T00:44:22.511Z,12.60
2022-10-26T00:46:48.939Z,12.70
2022-10-26T00:49:15.467Z,12.70
2022-10-26T00:51:41.925Z,12.80
2022-10-26T00:54:08.363Z,12.80
2022-10-26T00:56:34.796Z,12.80
2022-10-26T00:59:01.228Z,12.80
2022-10-26T01:01:27.682Z,12.80
2022-10-26T01:03:54.243Z,12.80
2022-10-26T01:06:20.733Z,12.80
2022-10-26T01:08:47.147Z,12.80
2022-10-26T01:11:13.597Z,12.80
2022-10-26T01:13:40.032Z,12.80
2022-10-26T01:16:06.473Z,12.90
2022-10-26T01:18:32.913Z,12.90
2022-10-26T01:20:59.357Z,12.90
2022-10-26T01:23:25.778Z,12.90
2022-10-26T01:25:52.225Z,12.80
2022-10-26T01:28:18.658Z,12.90
2022-10-26T01:30:45.096Z,12.90
2022-10-26T01:33:11.521Z,12.90
2022-10-26T01:35:37.975Z,12.90
2022-10-26T01:38:04.396Z,12.90
2022-10-26T01:40:30.825Z,12.90
2022-10-26T01:42:57.240Z,12.90
2022-10-26T01:45:23.673Z,12.90
2022-10-26T01:47:50.491Z,13.00
2022-10-26T01:50:17.174Z,13.00
2022-10-26T01:52:43.671Z,13.00
2022-10-26T01:55:10.107Z,13.10
2022-10-26T01:57:36.552Z,13.10
2022-10-26T02:00:02.981Z,13.10
2022-10-26T02:02:29.430Z,13.10
2022-10-26T02:04:55.868Z,13.10
2022-10-26T02:07:22.325Z,13.10
2022-10-26T02:09:48.741Z,13.10
2022-10-26T02:12:15.173Z,13.10
2022-10-26T02:14:41.592Z,13.10
2022-10-26T02:17:08.033Z,13.00
2022-10-26T02:19:34.466Z,13.00
2022-10-26T02:22:00.898Z,13.00
2022-10-26T02:24:27.335Z,12.90
2022-10-26T02:26:53.774Z,12.90
2022-10-26T02:29:20.209Z,13.00
2022-10-26T02:31:46.638Z,13.00
2022-10-26T02:34:13.078Z,12.90
2022-10-26T02:36:39.518Z,12.90
2022-10-26T02:39:05.955Z,12.90
2022-10-26T02:41:32.383Z,13.00
2022-10-26T02:43:58.817Z,13.00
2022-10-26T02:46:25.240Z,12.90
2022-10-26T02:48:51.671Z,13.00
2022-10-26T02:51:18.110Z,13.00
2022-10-26T02:53:44.544Z,13.00
2022-10-26T02:56:10.971Z,13.00
2022-10-26T02:58:37.426Z,13.00
2022-10-26T03:01:03.921Z,13.10
2022-10-26T03:03:30.427Z,13.10
2022-10-26T03:05:56.853Z,13.10
2022-10-26T03:08:23.289Z,13.10
2022-10-26T03:10:49.769Z,13.20
2022-10-26T03:13:16.199Z,13.20
2022-10-26T03:15:42.628Z,13.10
2022-10-26T03:18:09.065Z,13.10
2022-10-26T03:20:35.513Z,13.20
2022-10-26T03:23:01.932Z,13.10
2022-10-26T03:25:28.373Z,13.10
2022-10-26T03:27:54.810Z,13.10
2022-10-26T03:30:21.262Z,13.10
2022-10-26T03:32:47.712Z,13.10
2022-10-26T03:35:14.167Z,13.10
2022-10-26T03:37:40.591Z,13.10
2022-10-26T03:40:07.057Z,13.10
2022-10-26T03:42:33.469Z,13.10
2022-10-26T03:44:59.894Z,13.10
2022-10-26T03:47:26.550Z,13.20
2022-10-26T03:49:52.995Z,13.20
2022-10-26T03:52:19.436Z,13.20
2022-10-26T03:54:45.897Z,13.20
2022-10-26T03:57:12.333Z,13.10
2022-10-26T03:59:38.781Z,13.10
2022-10-26T04:02:05.213Z,13.10
2022-10-26T04:04:31.700Z,13.10
2022-10-26T04:06:58.144Z,13.20
2022-10-26T04:09:24.606Z,13.10
2022-10-26T04:11:51.053Z,13.20
2022-10-26T04:14:17.512Z,13.20
2022-10-26T04:16:43.937Z,13.20
2022-10-26T04:19:10.389Z,13.30
2022-10-26T04:21:36.817Z,13.30
2022-10-26T04:24:03.267Z,13.30
2022-10-26T04:26:29.725Z,13.30
2022-10-26T04:28:56.314Z,13.30
2022-10-26T04:31:22.751Z,13.30
2022-10-26T04:33:49.193Z,13.30
2022-10-26T04:36:15.619Z,13.30
2022-10-26T04:38:42.057Z,13.40
2022-10-26T04:41:08.486Z,13.40
2022-10-26T04:43:34.914Z,13.40
2022-10-26T04:46:01.364Z,13.40
2022-10-26T04:48:27.792Z,13.40
2022-10-26T04:50:54.229Z,13.40
2022-10-26T04:53:20.664Z,13.40
2022-10-26T04:55:47.095Z,13.40
2022-10-26T04:58:13.525Z,13.40
2022-10-26T05:00:39.965Z,13.40
2022-10-26T05:03:06.389Z,13.40
2022-10-26T05:05:32.831Z,13.40
2022-10-26T05:07:59.270Z,13.40
2022-10-26T05:10:25.703Z,13.40
2022-10-26T05:12:52.128Z,13.40
2022-10-26T05:15:18.559Z,13.40
2022-10-26T05:17:44.989Z,13.40
2022-10-26T05:20:11.420Z,13.40
2022-10-26T05:22:37.895Z,13.40
2022-10-26T05:25:04.362Z,13.50
2022-10-26T05:27:30.792Z,13.50
2022-10-26T05:29:57.297Z,13.50
2022-10-26T05:32:23.757Z,13.50
2022-10-26T05:34:50.241Z,13.50
2022-10-26T05:37:16.668Z,13.50
2022-10-26T05:39:43.114Z,13.50
2022-10-26T05:42:09.544Z,13.50
2022-10-26T05:44:35.981Z,13.50
2022-10-26T05:47:02.399Z,13.50
2022-10-26T05:49:28.842Z,13.50
2022-10-26T05:51:55.285Z,13.50
2022-10-26T05:54:21.748Z,13.50
2022-10-26T05:56:48.190Z,13.50
2022-10-26T05:59:14.604Z,13.50
2022-10-26T06:01:41.170Z,13.50
2022-10-26T06:04:07.694Z,13.50
2022-10-26T06:06:34.128Z,13.50
2022-10-26T06:09:00.573Z,13.40
2022-10-26T06:11:27.022Z,13.40
2022-10-26T06:13:53.437Z,13.50
2022-10-26T06:16:19.894Z,13.50
2022-10-26T06:18:46.324Z,13.50
2022-10-26T06:21:12.777Z,13.50
2022-10-26T06:23:39.213Z,13.40
2022-10-26T06:26:05.656Z,13.40
2022-10-26T06:31:03.435Z,13.40
2022-10-26T06:33:30.625Z,13.40
2022-10-26T06:35:57.401Z,13.40
2022-10-26T06:38:23.812Z,13.30
2022-10-26T06:40:50.242Z,13.30
2022-10-26T06:43:16.695Z,13.30
2022-10-26T06:45:43.122Z,13.40
2022-10-26T06:48:09.588Z,13.40
2022-10-26T06:50:36.018Z,13.40
2022-10-26T06:53:02.454Z,13.40
2022-10-26T06:55:28.886Z,13.40
2022-10-26T06:57:55.343Z,13.50
2022-10-26T07:00:21.831Z,13.50
2022-10-26T07:02:48.863Z,13.50
2022-10-26T07:05:15.586Z,13.60
2022-10-26T07:07:42.048Z,13.60
2022-10-26T07:10:08.466Z,13.70
2022-10-26T07:12:34.914Z,13.70
2022-10-26T07:15:01.373Z,13.70
2022-10-26T07:17:27.839Z,13.70
2022-10-26T07:19:54.321Z,13.70
2022-10-26T07:22:20.775Z,13.80
2022-10-26T07:24:47.213Z,13.80
2022-10-26T07:27:13.656Z,13.80
2022-10-26T07:29:40.078Z,13.80
2022-10-26T07:32:06.533Z,13.90
2022-10-26T07:34:33.009Z,13.90
2022-10-26T07:36:59.466Z,13.90
2022-10-26T07:39:25.888Z,14.00
2022-10-26T07:41:52.315Z,14.10
2022-10-26T07:44:18.783Z,14.20
2022-10-26T07:46:45.226Z,14.20
2022-10-26T07:49:11.678Z,14.20
2022-10-26T07:51:38.111Z,14.30
2022-10-26T07:54:04.560Z,14.30
2022-10-26T07:56:30.994Z,14.40
2022-10-26T07:58:57.442Z,14.40
2022-10-26T08:01:23.988Z,14.50
2022-10-26T08:03:50.498Z,14.50
2022-10-26T08:06:16.933Z,14.50
2022-10-26T08:08:46.405Z,14.50
2022-10-26T08:11:13.978Z,14.60
2022-10-26T08:13:40.454Z,14.60
2022-10-26T08:16:06.920Z,14.60
2022-10-26T08:18:33.374Z,14.60
2022-10-26T08:21:05.230Z,14.70
2022-10-26T08:23:37.441Z,14.70
2022-10-26T08:26:03.875Z,14.70
2022-10-26T08:28:30.313Z,14.80
2022-10-26T08:30:56.739Z,15.00
2022-10-26T08:33:23.199Z,15.20
2022-10-26T08:35:49.633Z,15.40
2022-10-26T08:38:16.081Z,15.60
2022-10-26T08:40:42.541Z,15.80
2022-10-26T08:43:08.994Z,16.00
2022-10-26T08:45:37.130Z,16.20
2022-10-26T08:48:03.750Z,16.50
2022-10-26T08:50:30.193Z,16.80
2022-10-26T08:52:56.625Z,17.00
2022-10-26T08:55:23.040Z,17.20
2022-10-26T08:57:49.722Z,17.50
2022-10-26T09:00:16.457Z,17.70
2022-10-26T09:02:42.944Z,18.00
2022-10-26T09:05:09.382Z,18.20
2022-10-26T09:07:35.821Z,18.40
2022-10-26T09:10:02.272Z,18.60
2022-10-26T09:12:28.691Z,18.80
2022-10-26T09:14:55.141Z,18.90
2022-10-26T09:17:21.586Z,19.10
2022-10-26T09:19:48.017Z,19.40
2022-10-26T09:22:14.457Z,19.50
2022-10-26T09:24:40.893Z,19.60
2022-10-26T09:27:07.331Z,19.70
2022-10-26T09:29:33.802Z,19.70
2022-10-26T09:32:00.241Z,19.60
2022-10-26T09:34:26.783Z,19.60
2022-10-26T09:36:53.205Z,19.60
2022-10-26T09:39:19.658Z,19.60
2022-10-26T09:41:46.092Z,19.60
2022-10-26T09:44:13.555Z,19.60
2022-10-26T09:46:39.995Z,19.60
2022-10-26T09:49:06.408Z,19.60
2022-10-26T09:51:32.850Z,19.50
2022-10-26T09:53:59.314Z,19.50
2022-10-26T09:56:25.755Z,19.50
2022-10-26T09:58:52.200Z,19.40
2022-10-26T10:01:18.671Z,19.40
2022-10-26T10:03:45.124Z,19.40
2022-10-26T10:06:11.547Z,19.40
2022-10-26T10:08:37.983Z,19.50
2022-10-26T10:11:04.406Z,19.50
2022-10-26T10:13:30.841Z,19.60
2022-10-26T10:15:57.278Z,19.80
2022-10-26T10:18:23.745Z,19.90
2022-10-26T10:20:50.161Z,20.10
2022-10-26T10:23:16.607Z,20.40
2022-10-26T10:25:43.047Z,20.60
2022-10-26T10:28:09.503Z,20.80
2022-10-26T10:30:35.963Z,21.00
2022-10-26T10:33:02.417Z,21.30
2022-10-26T10:35:28.861Z,21.40
2022-10-26T10:37:55.309Z,21.50
2022-10-26T10:40:21.753Z,21.60
2022-10-26T10:42:48.530Z,21.70
2022-10-26T10:45:15.111Z,21.70
2022-10-26T10:50:12.887Z,21.60
2022-10-26T10:52:39.319Z,21.60
2022-10-26T10:55:05.785Z,21.50
2022-10-26T10:57:32.210Z,21.60
2022-10-26T10:59:58.650Z,21.50
2022-10-26T11:02:25.243Z,21.50
2022-10-26T11:04:51.771Z,21.50
2022-10-26T11:07:18.210Z,21.50
2022-10-26T11:09:44.754Z,21.60
2022-10-26T11:12:11.249Z,21.60
2022-10-26T11:14:37.681Z,21.60
2022-10-26T11:17:04.129Z,21.60
2022-10-26T11:19:30.574Z,21.50
2022-10-26T11:21:57.007Z,21.50
2022-10-26T11:24:23.435Z,21.40
2022-10-26T11:26:49.879Z,21.40
2022-10-26T11:31:43.641Z,21.30
2022-10-26T11:34:10.078Z,21.20
2022-10-26T11:36:36.532Z,21.20
2022-10-26T11:39:06.399Z,21.20
2022-10-26T11:41:33.092Z,21.10
2022-10-26T11:43:59.553Z,21.00
2022-10-26T11:46:25.970Z,21.00
2022-10-26T11:48:52.438Z,21.00
2022-10-26T11:51:18.888Z,20.90
2022-10-26T11:53:45.345Z,20.90
2022-10-26T11:56:11.761Z,20.90
2022-10-26T11:58:38.208Z,20.80
2022-10-26T12:01:04.688Z,20.80
2022-10-26T12:03:31.153Z,20.70
2022-10-26T12:05:57.593Z,20.70
2022-10-26T12:08:24.038Z,20.70
2022-10-26T12:10:50.488Z,20.70
2022-10-26T12:13:16.933Z,20.70
2022-10-26T12:16:02.197Z,20.70
2022-10-26T12:18:50.264Z,20.70
2022-10-26T12:21:16.196Z,20.70
2022-10-26T12:23:51.386Z,20.60
2022-10-26T12:26:18.091Z,20.60
2022-10-26T12:28:44.521Z,20.60
2022-10-26T12:31:10.970Z,20.60
2022-10-26T12:33:37.411Z,20.50
2022-10-26T12:36:03.888Z,20.50
2022-10-26T12:38:31.717Z,20.50
2022-10-26T12:41:00.173Z,20.50
2022-10-26T12:43:26.602Z,20.50
2022-10-26T12:45:53.027Z,20.50
2022-10-26T12:48:27.932Z,20.50
2022-10-26T12:51:01.370Z,20.50
2022-10-26T12:53:27.806Z,20.50
2022-10-26T12:55:54.221Z,20.50
2022-10-26T12:58:21.168Z,20.50
2022-10-26T13:00:47.597Z,20.50
2022-10-26T13:03:14.036Z,20.60
2022-10-26T13:05:40.478Z,20.60
2022-10-26T13:08:06.905Z,20.60
2022-10-26T13:10:33.342Z,20.60
2022-10-26T13:12:59.760Z,20.70
2022-10-26T13:15:26.194Z,20.70
2022-10-26T13:17:52.638Z,20.60
2022-10-26T13:20:19.093Z,20.60
2022-10-26T13:22:45.566Z,20.60
2022-10-26T13:25:12.025Z,20.60
2022-10-26T13:27:38.471Z,20.60
2022-10-26T13:30:05.011Z,20.60
2022-10-26T13:32:31.472Z,20.60
2022-10-26T13:34:57.916Z,20.60
2022-10-26T13:37:24.345Z,20.60
2022-10-26T13:39:50.765Z,20.60
2022-10-26T13:42:17.205Z,20.50
2022-10-26T13:44:43.629Z,20.50
2022-10-26T13:47:10.065Z,20.50
2022-10-26T13:49:36.507Z,20.40
2022-10-26T13:52:02.951Z,20.40
2022-10-26T13:54:29.531Z,20.40
2022-10-26T13:56:55.997Z,20.40
2022-10-26T13:59:22.414Z,20.40
2022-10-26T14:01:48.894Z,20.40
2022-10-26T14:04:15.359Z,20.40
2022-10-26T14:06:41.805Z,20.40
2022-10-26T14:09:08.216Z,20.40
2022-10-26T14:11:34.653Z,20.40
2022-10-26T14:14:01.085Z,20.30
2022-10-26T14:16:27.550Z,20.40
2022-10-26T14:18:53.992Z,20.40
2022-10-26T14:21:20.440Z,20.30
2022-10-26T14:23:47.092Z,20.30
2022-10-26T14:26:15.784Z,20.30
2022-10-26T14:28:43.379Z,20.30
2022-10-26T14:31:09.798Z,20.30
2022-10-26T14:33:36.249Z,20.30
2022-10-26T14:36:02.702Z,20.30
2022-10-26T14:38:29.145Z,20.30
2022-10-26T14:40:55.575Z,20.20
2022-10-26T14:43:22.051Z,20.20
2022-10-26T14:45:49.509Z,20.20
2022-10-26T14:48:16.244Z,20.20
2022-10-26T14:50:42.656Z,20.10
2022-10-26T14:53:09.090Z,20.10
2022-10-26T14:55:35.530Z,20.10
2022-10-26T14:58:01.973Z,20.10
2022-10-26T15:00:28.403Z,20.00
2022-10-26T15:02:54.841Z,20.00
2022-10-26T15:05:21.311Z,20.00
2022-10-26T15:07:48.018Z,20.00
2022-10-26T15:10:14.649Z,19.90
2022-10-26T15:12:41.093Z,19.90
2022-10-26T15:15:07.614Z,19.90
2022-10-26T15:17:34.087Z,19.80
2022-10-26T15:20:00.517Z,19.80
2022-10-26T15:22:30.925Z,19.80
2022-10-26T15:24:58.390Z,19.80
2022-10-26T15:27:24.801Z,19.80
2022-10-26T15:29:51.253Z,19.70
2022-10-26T15:32:17.685Z,19.70
2022-10-26T15:34:44.153Z,19.70
2022-10-26T15:37:10.646Z,19.70
2022-10-26T15:39:37.121Z,19.60
2022-10-26T15:42:03.543Z,19.60
2022-10-26T15:44:30.022Z,19.50
2022-10-26T15:46:56.460Z,19.60
2022-10-26T15:49:22.931Z,19.50
2022-10-26T15:51:49.376Z,19.50
2022-10-26T15:54:15.838Z,19.50
2022-10-26T15:56:42.260Z,19.40
2022-10-26T15:59:08.712Z,19.40
2022-10-26T16:01:35.227Z,19.30
2022-10-26T16:04:01.737Z,19.30
2022-10-26T16:06:28.178Z,19.20
2022-10-26T16:08:54.624Z,19.20
2022-10-26T16:11:21.063Z,19.10
2022-10-26T16:13:47.539Z,19.00
2022-10-26T16:16:13.992Z,19.00
2022-10-26T16:18:40.422Z,18.90
2022-10-26T16:21:06.861Z,18.90
2022-10-26T16:23:33.282Z,18.80
2022-10-26T16:25:59.754Z,18.70
2022-10-26T16:28:26.193Z,18.60
2022-10-26T16:30:52.635Z,18.60
2022-10-26T16:33:19.071Z,18.50
2022-10-26T16:35:45.513Z,18.50
2022-10-26T16:38:11.937Z,18.50
2022-10-26T16:40:38.378Z,18.50
2022-10-26T16:43:04.798Z,18.50
2022-10-26T16:45:31.351Z,18.40
2022-10-26T16:47:57.810Z,18.40
2022-10-26T16:50:24.258Z,18.40
2022-10-26T16:52:50.698Z,18.40
2022-10-26T16:55:17.145Z,18.30
2022-10-26T16:57:43.571Z,18.30
2022-10-26T17:00:10.023Z,18.30
2022-10-26T17:02:36.589Z,18.30
2022-10-26T17:05:06.913Z,18.30
2022-10-26T17:07:34.099Z,18.30
2022-10-26T17:10:00.536Z,18.30
2022-10-26T17:14:58.306Z,18.30
2022-10-26T17:17:24.727Z,18.30
2022-10-26T17:19:51.177Z,18.30
2022-10-26T17:22:17.607Z,18.30
2022-10-26T17:24:44.064Z,18.30
2022-10-26T17:27:10.479Z,18.30
2022-10-26T17:29:36.889Z,18.30
2022-10-26T17:32:03.330Z,18.30
2022-10-26T17:34:29.759Z,18.30
2022-10-26T17:36:56.200Z,18.30
2022-10-26T17:39:22.645Z,18.30
2022-10-26T17:41:49.080Z,18.30
2022-10-26T17:44:15.503Z,18.30
2022-10-26T17:46:41.967Z,18.30
2022-10-26T17:49:08.399Z,18.20
2022-10-26T17:51:34.853Z,18.20
2022-10-26T17:54:01.281Z,18.20
2022-10-26T17:56:27.768Z,18.20
2022-10-26T17:58:54.202Z,18.20
2022-10-26T18:01:20.736Z,18.10
2022-10-26T18:03:47.277Z,18.10
2022-10-26T18:06:13.697Z,18.10
2022-10-26T18:08:40.126Z,18.10
2022-10-26T18:11:06.552Z,18.10
2022-10-26T18:13:33.020Z,18.00
2022-10-26T18:15:59.440Z,18.00
2022-10-26T18:18:25.872Z,17.90
2022-10-26T18:20:52.296Z,17.90
2022-10-26T18:23:18.749Z,17.90
2022-10-26T18:25:45.190Z,17.80
2022-10-26T18:30:43.006Z,17.80
2022-10-26T18:33:09.445Z,17.80
2022-10-26T18:35:35.888Z,17.80
2022-10-26T18:38:02.323Z,17.80
2022-10-26T18:40:28.735Z,17.70
2022-10-26T18:42:55.183Z,17.70
2022-10-26T18:45:21.621Z,17.70
2022-10-26T18:47:48.336Z,17.70
2022-10-26T18:50:14.883Z,17.70
2022-10-26T18:52:41.350Z,17.60
2022-10-26T18:55:07.787Z,17.60
2022-10-26T18:57:34.219Z,17.60
2022-10-26T19:00:00.654Z,17.60
2022-10-26T19:02:27.081Z,17.50
2022-10-26T19:04:53.532Z,17.50
2022-10-26T19:07:19.969Z,17.40
2022-10-26T19:09:46.393Z,17.40
2022-10-26T19:12:12.816Z,17.40
2022-10-26T19:14:39.277Z,17.30
2022-10-26T19:17:05.700Z,17.30
2022-10-26T19:19:32.148Z,17.30
2022-10-26T19:21:58.590Z,17.30
2022-10-26T19:24:25.032Z,17.20
2022-10-26T19:26:51.471Z,17.20
2022-10-26T19:29:17.944Z,17.20
2022-10-26T19:31:44.373Z,17.20
2022-10-26T19:34:10.813Z,17.20
2022-10-26T19:36:37.237Z,17.20
2022-10-26T19:39:03.677Z,17.10
2022-10-26T19:41:30.095Z,17.20
2022-10-26T19:43:56.661Z,17.10
2022-10-26T19:46:23.139Z,17.10
2022-10-26T19:48:49.586Z,17.10
2022-10-26T19:51:16.015Z,17.10
2022-10-26T19:53:42.476Z,17.10
2022-10-26T19:56:08.923Z,17.10
2022-10-26T19:58:35.365Z,17.00
2022-10-26T20:01:01.788Z,16.90
2022-10-26T20:03:28.236Z,17.00
2022-10-26T20:05:54.667Z,17.00
2022-10-26T20:08:21.112Z,17.00
2022-10-26T20:10:47.559Z,16.90
2022-10-26T20:13:14.013Z,16.90
2022-10-26T20:15:40.441Z,16.90
2022-10-26T20:18:06.874Z,16.90
2022-10-26T20:20:33.296Z,16.90
2022-10-26T20:22:59.752Z,16.80
2022-10-26T20:25:26.185Z,16.80
2022-10-26T20:27:52.949Z,16.80
2022-10-26T20:30:19.550Z,16.80
2022-10-26T20:32:45.972Z,16.70
2022-10-26T20:35:12.405Z,16.80
2022-10-26T20:37:38.832Z,16.70
2022-10-26T20:40:05.268Z,16.70
2022-10-26T20:42:31.693Z,16.70
2022-10-26T20:44:58.126Z,16.70
2022-10-26T20:47:24.547Z,16.70
2022-10-26T20:49:50.992Z,16.60
2022-10-26T20:52:21.677Z,16.70
2022-10-26T20:54:48.553Z,16.70
2022-10-26T20:57:14.969Z,16.60
2022-10-26T20:59:41.424Z,16.60
2022-10-26T21:02:07.885Z,16.50
2022-10-26T21:04:34.371Z,16.50
2022-10-26T21:07:00.789Z,16.50
2022-10-26T21:09:27.648Z,16.50
2022-10-26T21:11:54.974Z,16.50
2022-10-26T21:14:21.419Z,16.40
2022-10-26T21:16:47.846Z,16.40
2022-10-26T21:19:14.278Z,16.40
2022-10-26T21:21:40.692Z,16.40
2022-10-26T21:24:07.121Z,16.30
2022-10-26T21:26:33.567Z,16.30
2022-10-26T21:29:00.009Z,16.30
2022-10-26T21:31:26.443Z,16.30
2022-10-26T21:33:52.880Z,16.30
2022-10-26T21:36:19.321Z,16.30
2022-10-26T21:38:45.777Z,16.20
2022-10-26T21:41:12.276Z,16.30
2022-10-26T21:43:38.784Z,16.20
2022-10-26T21:46:05.204Z,16.20
2022-10-26T21:48:31.649Z,16.30
2022-10-26T21:50:58.090Z,16.20
2022-10-26T21:53:24.515Z,16.20
2022-10-26T21:55:50.961Z,16.20
2022-10-26T21:58:17.388Z,16.20
2022-10-26T22:00:43.860Z,16.20
2022-10-26T22:03:10.297Z,16.20
2022-10-26T22:05:36.759Z,16.20
2022-10-26T22:08:03.188Z,16.20
2022-10-26T22:10:29.625Z,16.20
2022-10-26T22:12:56.052Z,16.20
2022-10-26T22:15:22.479Z,16.20
2022-10-26T22:17:49.207Z,16.20
2022-10-26T22:20:15.907Z,16.20
2022-10-26T22:22:42.341Z,16.20
2022-10-26T22:25:08.785Z,16.20
2022-10-26T22:27:35.237Z,16.20
2022-10-26T22:30:01.690Z,16.20
2022-10-26T22:32:28.127Z,16.20
2022-10-26T22:35:10.487Z,16.20
2022-10-26T22:37:40.991Z,16.20
2022-10-26T22:40:07.415Z,16.20
2022-10-26T22:42:33.865Z,16.20
2022-10-26T22:45:00.277Z,16.20
2022-10-26T22:47:26.759Z,16.10
2022-10-26T22:49:53.202Z,16.10
2022-10-26T22:52:19.651Z,16.10
2022-10-26T22:54:46.093Z,16.10
2022-10-26T22:57:12.526Z,16.10
2022-10-26T22:59:38.956Z,16.10
2022-10-26T23:02:05.473Z,16.10
2022-10-26T23:04:31.991Z,16.10
2022-10-26T23:06:58.439Z,16.10
2022-10-26T23:09:24.861Z,16.10
2022-10-26T23:11:51.299Z,16.10
2022-10-26T23:14:17.713Z,16.10
2022-10-26T23:16:44.150Z,16.10
2022-10-26T23:19:10.577Z,16.00
2022-10-26T23:21:37.013Z,16.00
2022-10-26T23:24:03.449Z,16.00
2022-10-26T23:26:29.904Z,16.00
2022-10-26T23:28:56.327Z,16.00
2022-10-26T23:31:22.792Z,16.00
2022-10-26T23:33:49.239Z,16.00
2022-10-26T23:36:15.679Z,15.90
2022-10-26T23:38:42.107Z,15.90
2022-10-26T23:41:10.833Z,15.90
2022-10-26T23:43:39.313Z,15.90
2022-10-26T23:46:05.762Z,16.00
2022-10-26T23:48:32.189Z,15.90
2022-10-26T23:50:58.605Z,15.90
2022-10-26T23:53:25.041Z,15.90
2022-10-26T23:55:51.474Z,15.90
2022-10-26T23:58:17.940Z,15.80
